createdAt,value
2023-04-18T00:03:04.774Z,100491.73
2023-04-18T00:06:05.303Z,100490.41
2023-04-18T00:08:58.325Z,100488.48
2023-04-18T00:11:58.301Z,100486.14
2023-04-18T00:14:59.383Z,100486.34
2023-04-18T00:18:02.509Z,100481.02
2023-04-18T00:21:06.351Z,100478.86
2023-04-18T00:24:06.309Z,100480.77
2023-04-18T00:27:07.459Z,100483.31
2023-04-18T00:30:07.361Z,100482.23
2023-04-18T00:33:07.377Z,100485.77
2023-04-18T00:36:08.493Z,100478.92
2023-04-18T00:39:10.380Z,100478.66
2023-04-18T00:42:10.461Z,100483.57
2023-04-18T00:45:11.417Z,100482.98
2023-04-18T00:48:14.448Z,100484.79
2023-04-18T00:51:14.576Z,100484.80
2023-04-18T00:54:15.787Z,100483.16
2023-04-18T00:57:16.380Z,100479.56
2023-04-18T01:00:19.367Z,100479.89
2023-04-18T01:03:20.567Z,100478.23
2023-04-18T01:06:20.412Z,100476.68
2023-04-18T01:09:21.366Z,100476.91
2023-04-18T01:12:21.457Z,100477.36
2023-04-18T01:15:21.421Z,100481.02
2023-04-18T01:18:25.481Z,100480.83
2023-04-18T01:21:26.420Z,100479.39
2023-04-18T01:24:30.428Z,100477.96
2023-04-18T01:27:30.456Z,100477.13
2023-04-18T01:30:30.434Z,100476.52
2023-04-18T01:33:30.715Z,100477.58
2023-04-18T01:36:30.643Z,100478.27
2023-04-18T01:39:30.582Z,100481.45
2023-04-18T01:42:30.476Z,100479.44
2023-04-18T01:45:30.518Z,100478.64
2023-04-18T01:48:30.477Z,100478.20
2023-04-18T01:51:30.472Z,100474.25
2023-04-18T01:54:30.571Z,100476.74
2023-04-18T01:57:30.522Z,100473.18
2023-04-18T02:00:30.547Z,100471.92
2023-04-18T02:03:32.806Z,100473.83
2023-04-18T02:06:33.500Z,100470.56
2023-04-18T02:09:33.592Z,100468.98
2023-04-18T02:12:33.548Z,100468.20
2023-04-18T02:15:36.561Z,100469.32
2023-04-18T02:18:36.545Z,100467.34
2023-04-18T02:21:36.526Z,100472.70
2023-04-18T02:24:38.605Z,100470.35
2023-04-18T02:27:38.522Z,100467.20
2023-04-18T02:30:38.639Z,100473.91
2023-04-18T02:33:38.591Z,100476.33
2023-04-18T02:36:38.548Z,100475.22
2023-04-18T02:39:31.643Z,100470.83
2023-04-18T02:42:24.583Z,100469.45
2023-04-18T02:45:24.640Z,100473.21
2023-04-18T02:48:25.629Z,100475.77
2023-04-18T02:51:25.749Z,100472.80
2023-04-18T02:54:25.566Z,100472.74
2023-04-18T02:57:29.602Z,100470.41
2023-04-18T03:00:42.603Z,100472.23
2023-04-18T03:04:08.613Z,100470.94
2023-04-18T03:07:10.614Z,100470.30
2023-04-18T03:10:10.633Z,100469.16
2023-04-18T03:13:11.243Z,100467.13
2023-04-18T03:16:11.855Z,100468.83
2023-04-18T03:19:11.683Z,100468.00
2023-04-18T03:22:11.630Z,100472.06
2023-04-18T03:25:17.635Z,100472.81
2023-04-18T03:28:20.672Z,100471.09
2023-04-18T03:31:20.661Z,100469.80
2023-04-18T03:34:22.701Z,100474.60
2023-04-18T03:37:22.690Z,100475.75
2023-04-18T03:40:22.664Z,100481.04
2023-04-18T03:43:25.680Z,100477.05
2023-04-18T03:46:25.716Z,100474.27
2023-04-18T03:49:26.693Z,100477.52
2023-04-18T03:52:19.750Z,100476.46
2023-04-18T03:55:19.704Z,100475.49
2023-04-18T03:58:19.704Z,100477.50
2023-04-18T04:01:20.727Z,100478.36
2023-04-18T04:04:20.831Z,100476.80
2023-04-18T04:07:20.725Z,100474.88
2023-04-18T04:10:20.692Z,100477.27
2023-04-18T04:13:20.694Z,100477.20
2023-04-18T04:16:20.893Z,100478.93
2023-04-18T04:19:20.759Z,100475.09
2023-04-18T04:22:29.756Z,100474.77
2023-04-18T04:25:31.753Z,100476.11
2023-04-18T04:28:43.045Z,100471.60
2023-04-18T04:31:38.752Z,100470.59
2023-04-18T04:34:38.774Z,100472.11
2023-04-18T04:37:39.796Z,100475.79
2023-04-18T04:40:46.798Z,100472.88
2023-04-18T04:43:46.763Z,100472.11
2023-04-18T04:46:50.833Z,100471.59
2023-04-18T04:49:55.194Z,100469.50
2023-04-18T04:52:54.781Z,100471.54
2023-04-18T04:55:54.828Z,100476.98
2023-04-18T04:58:47.895Z,100481.41
2023-04-18T05:01:50.833Z,100483.92
2023-04-18T05:04:50.805Z,100485.05
2023-04-18T05:07:51.905Z,100485.67
2023-04-18T05:10:51.802Z,100484.58
2023-04-18T05:13:52.832Z,100484.16
2023-04-18T05:16:53.855Z,100489.36
2023-04-18T05:19:53.878Z,100495.26
2023-04-18T05:22:53.896Z,100497.09
2023-04-18T05:25:53.889Z,100495.66
2023-04-18T05:28:53.830Z,100489.49
2023-04-18T05:31:53.902Z,100489.44
2023-04-18T05:34:53.836Z,100493.66
2023-04-18T05:37:53.915Z,100491.31
2023-04-18T05:40:53.888Z,100490.04
2023-04-18T05:44:04.692Z,100486.66
2023-04-18T05:46:59.121Z,100483.35
2023-04-18T05:49:59.927Z,100483.95
2023-04-18T05:52:59.896Z,100479.36
2023-04-18T05:56:00.901Z,100478.88
2023-04-18T05:59:01.152Z,100481.27
2023-04-18T06:02:00.995Z,100482.34
2023-04-18T06:05:01.398Z,100477.76
2023-04-18T06:08:02.010Z,100474.11
2023-04-18T06:11:01.917Z,100475.02
2023-04-18T06:14:02.954Z,100473.88
2023-04-18T06:17:02.971Z,100478.02
2023-04-18T06:20:03.004Z,100477.48
2023-04-18T06:23:03.147Z,100476.41
2023-04-18T06:26:03.100Z,100479.02
2023-04-18T06:29:03.014Z,100478.63
2023-04-18T06:32:04.060Z,100481.46
2023-04-18T06:35:04.011Z,100477.58
2023-04-18T06:38:04.998Z,100477.39
2023-04-18T06:41:05.052Z,100476.96
2023-04-18T06:44:05.995Z,100477.12
2023-04-18T06:47:06.031Z,100476.90
2023-04-18T06:50:05.998Z,100476.23
2023-04-18T06:53:06.075Z,100477.30
2023-04-18T06:56:06.037Z,100482.67
2023-04-18T06:59:06.004Z,100474.77
2023-04-18T07:02:06.169Z,100478.30
2023-04-18T07:05:06.059Z,100476.29
2023-04-18T07:08:06.303Z,100479.25
2023-04-18T07:11:00.053Z,100481.83
2023-04-18T07:13:48.041Z,100487.98
2023-04-18T07:16:42.206Z,100486.83
2023-04-18T07:19:42.148Z,100487.90
2023-04-18T07:22:42.092Z,100486.20
2023-04-18T07:25:42.144Z,100482.52
2023-04-18T07:28:42.120Z,100482.80
2023-04-18T07:31:42.167Z,100480.48
2023-04-18T07:34:43.115Z,100479.07
2023-04-18T07:37:44.097Z,100480.34
2023-04-18T07:40:44.150Z,100474.85
2023-04-18T07:43:46.118Z,100473.92
2023-04-18T07:46:46.429Z,100478.56
2023-04-18T07:49:46.214Z,100475.04
2023-04-18T07:52:54.270Z,100477.42
2023-04-18T07:55:56.141Z,100479.16
2023-04-18T07:58:58.177Z,100477.06
2023-04-18T08:02:09.430Z,100476.23
2023-04-18T08:05:17.544Z,100474.27
2023-04-18T08:08:18.145Z,100477.86
2023-04-18T08:11:23.946Z,100476.21
2023-04-18T08:14:25.236Z,100478.63
2023-04-18T08:17:26.223Z,100473.82
2023-04-18T08:20:28.164Z,100475.58
2023-04-18T08:23:28.171Z,100472.46
2023-04-18T08:26:28.182Z,100468.30
2023-04-18T08:29:28.163Z,100464.85
2023-04-18T08:32:28.192Z,100467.13
2023-04-18T08:35:28.221Z,100468.27
2023-04-18T08:38:28.203Z,100457.15
2023-04-18T08:41:29.250Z,100460.02
2023-04-18T08:44:29.355Z,100453.87
2023-04-18T08:47:29.331Z,100450.83
2023-04-18T08:50:29.243Z,100453.11
2023-04-18T08:53:29.292Z,100448.04
2023-04-18T08:56:33.195Z,100442.73
2023-04-18T08:59:33.296Z,100435.70
2023-04-18T09:02:34.428Z,100430.86
2023-04-18T09:05:34.292Z,100432.62
2023-04-18T09:08:34.299Z,100426.20
2023-04-18T09:11:34.218Z,100429.52
2023-04-18T09:14:23.316Z,100429.02
2023-04-18T09:17:26.233Z,100425.61
2023-04-18T09:20:19.293Z,100419.38
2023-04-18T09:23:25.264Z,100418.52
2023-04-18T09:26:26.326Z,100418.36
2023-04-18T09:29:29.319Z,100408.73
2023-04-18T09:32:32.354Z,100417.98
2023-04-18T09:35:32.270Z,100414.20
2023-04-18T09:38:32.351Z,100412.39
2023-04-18T09:41:33.306Z,100411.48
2023-04-18T09:44:33.270Z,100408.19
2023-04-18T09:47:33.459Z,100404.70
2023-04-18T09:50:33.374Z,100408.26
2023-04-18T09:53:33.341Z,100405.95
2023-04-18T09:56:35.384Z,100402.52
2023-04-18T09:59:55.438Z,100399.05
2023-04-18T10:03:11.503Z,100396.84
2023-04-18T10:06:11.346Z,100395.77
2023-04-18T10:09:13.506Z,100395.91
2023-04-18T10:12:14.384Z,100396.20
2023-04-18T10:15:14.416Z,100393.66
2023-04-18T10:18:15.459Z,100392.52
2023-04-18T10:21:15.428Z,100386.20
2023-04-18T10:24:15.573Z,100390.81
2023-04-18T10:27:15.374Z,100386.62
2023-04-18T10:30:15.396Z,100381.05
2023-04-18T10:33:32.903Z,100385.80
2023-04-18T10:36:34.719Z,100382.94
2023-04-18T10:39:35.393Z,100386.79
2023-04-18T10:42:54.391Z,100388.75
2023-04-18T10:45:55.433Z,100389.60
2023-04-18T10:48:55.507Z,100395.33
2023-04-18T10:51:55.496Z,100397.35
2023-04-18T10:55:11.408Z,100402.19
2023-04-18T10:58:11.704Z,100400.23
2023-04-18T11:01:05.578Z,100404.89
2023-04-18T11:04:07.782Z,100406.70
2023-04-18T11:07:07.482Z,100408.89
2023-04-18T11:10:08.627Z,100404.17
2023-04-18T11:13:11.496Z,100403.67
2023-04-18T11:16:11.757Z,100400.20
2023-04-18T11:19:11.486Z,100398.13
2023-04-18T11:22:12.518Z,100404.21
2023-04-18T11:25:13.507Z,100405.98
2023-04-18T11:28:13.630Z,100395.80
2023-04-18T11:31:16.516Z,100399.45
2023-04-18T11:34:16.560Z,100397.95
2023-04-18T11:37:18.521Z,100399.83
2023-04-18T11:40:19.577Z,100400.65
2023-04-18T11:43:19.506Z,100395.86
2023-04-18T11:46:22.714Z,100394.17
2023-04-18T11:49:36.543Z,100394.20
2023-04-18T11:52:36.546Z,100396.42
2023-04-18T11:55:36.568Z,100397.27
2023-04-18T11:58:42.628Z,100392.90
2023-04-18T12:01:35.702Z,100393.61
2023-04-18T12:04:35.766Z,100387.52
2023-04-18T12:07:42.605Z,100380.96
2023-04-18T12:10:42.610Z,100379.77
2023-04-18T12:13:47.613Z,100381.86
2023-04-18T12:16:47.778Z,100378.50
2023-04-18T12:19:51.821Z,100377.02
2023-04-18T12:23:01.760Z,100378.23
2023-04-18T12:26:01.628Z,100376.46
2023-04-18T12:29:02.626Z,100380.58
2023-04-18T12:32:02.648Z,100373.11
2023-04-18T12:35:06.703Z,100372.42
2023-04-18T12:38:06.710Z,100375.84
2023-04-18T12:41:06.673Z,100373.54
2023-04-18T12:44:09.720Z,100375.61
2023-04-18T12:47:12.632Z,100380.20
2023-04-18T12:50:18.512Z,100380.85
2023-04-18T12:53:18.679Z,100377.73
2023-04-18T12:56:18.659Z,100373.59
2023-04-18T12:59:18.667Z,100377.19
2023-04-18T13:02:18.831Z,100377.52
2023-04-18T13:05:21.656Z,100382.06
2023-04-18T13:08:22.718Z,100383.41
2023-04-18T13:11:22.747Z,100386.49
2023-04-18T13:14:22.714Z,100387.37
2023-04-18T13:17:22.845Z,100392.05
2023-04-18T13:20:22.729Z,100389.11
2023-04-18T13:23:22.753Z,100386.10
2023-04-18T13:26:25.761Z,100383.23
2023-04-18T13:29:26.729Z,100378.63
2023-04-18T13:32:26.707Z,100378.56
2023-04-18T13:35:26.695Z,100379.25
2023-04-18T13:38:26.740Z,100378.46
2023-04-18T13:41:26.766Z,100377.11
2023-04-18T13:44:26.738Z,100375.53
2023-04-18T13:47:26.777Z,100364.32
2023-04-18T13:50:26.737Z,100358.80
2023-04-18T13:53:29.453Z,100355.73
2023-04-18T13:56:30.817Z,100350.36
2023-04-18T13:59:30.776Z,100352.05
2023-04-18T14:02:31.825Z,100349.34
2023-04-18T14:05:31.828Z,100348.31
2023-04-18T14:08:32.804Z,100347.41
2023-04-18T14:11:34.961Z,100343.85
2023-04-18T14:14:34.853Z,100344.23
2023-04-18T14:17:34.860Z,100343.71
2023-04-18T14:20:39.832Z,100342.19
2023-04-18T14:23:40.809Z,100338.31
2023-04-18T14:26:40.828Z,100337.45
2023-04-18T14:29:40.832Z,100335.31
2023-04-18T14:32:40.829Z,100334.50
2023-04-18T14:35:40.838Z,100334.86
2023-04-18T14:38:40.861Z,100336.60
2023-04-18T14:41:41.082Z,100333.02
2023-04-18T14:44:33.878Z,100327.38
2023-04-18T14:47:37.943Z,100324.85
2023-04-18T14:50:37.875Z,100325.55
2023-04-18T14:53:37.862Z,100320.89
2023-04-18T14:56:37.873Z,100319.20
2023-04-18T14:59:38.081Z,100320.73
2023-04-18T15:02:42.762Z,100320.69
2023-04-18T15:05:48.942Z,100319.34
2023-04-18T15:08:49.950Z,100317.77
2023-04-18T15:11:49.872Z,100309.47
2023-04-18T15:14:49.938Z,100310.64
2023-04-18T15:17:50.968Z,100309.21
2023-04-18T15:20:50.936Z,100305.98
2023-04-18T15:23:51.033Z,100298.48
2023-04-18T15:26:51.125Z,100302.48
2023-04-18T15:29:50.921Z,100297.02
2023-04-18T15:32:51.945Z,100294.61
2023-04-18T15:35:53.121Z,100290.55
2023-04-18T15:38:52.933Z,100289.17
2023-04-18T15:41:52.967Z,100288.29
2023-04-18T15:44:52.998Z,100286.25
2023-04-18T15:47:54.003Z,100281.66
2023-04-18T15:50:54.006Z,100280.05
2023-04-18T15:53:53.993Z,100278.28
2023-04-18T15:56:53.988Z,100277.56
2023-04-18T15:59:55.089Z,100276.54
2023-04-18T16:02:55.050Z,100277.92
2023-04-18T16:05:55.985Z,100277.05
2023-04-18T16:08:59.012Z,100278.21
2023-04-18T16:11:59.059Z,100277.11
2023-04-18T16:14:59.343Z,100277.55
2023-04-18T16:18:00.068Z,100276.62
2023-04-18T16:21:00.076Z,100279.46
2023-04-18T16:24:00.066Z,100274.04
2023-04-18T16:27:01.048Z,100277.36
2023-04-18T16:30:04.350Z,100274.02
2023-04-18T16:33:05.251Z,100276.31
2023-04-18T16:36:05.050Z,100272.11
2023-04-18T16:39:07.038Z,100274.48
2023-04-18T16:42:09.054Z,100276.19
2023-04-18T16:45:09.328Z,100275.11
2023-04-18T16:48:10.143Z,100271.29
2023-04-18T16:51:10.100Z,100274.31
2023-04-18T16:54:10.045Z,100273.12
2023-04-18T16:57:11.337Z,100268.46
2023-04-18T17:00:12.152Z,100267.90
2023-04-18T17:03:05.351Z,100264.23
2023-04-18T17:05:54.195Z,100265.06
2023-04-18T17:08:52.772Z,100263.73
2023-04-18T17:11:47.096Z,100262.83
2023-04-18T17:14:47.127Z,100263.81
2023-04-18T17:17:47.225Z,100261.36
2023-04-18T17:20:47.123Z,100261.57
2023-04-18T17:23:49.164Z,100262.25
2023-04-18T17:26:51.115Z,100265.16
2023-04-18T17:29:53.192Z,100264.77
2023-04-18T17:32:54.125Z,100261.63
2023-04-18T17:35:55.205Z,100261.06
2023-04-18T17:38:55.195Z,100257.42
2023-04-18T17:41:55.204Z,100254.03
2023-04-18T17:44:55.167Z,100250.95
2023-04-18T17:47:56.405Z,100250.45
2023-04-18T17:50:58.147Z,100245.42
2023-04-18T17:53:58.215Z,100245.38
2023-04-18T17:56:51.254Z,100245.30
2023-04-18T17:59:43.200Z,100240.06
2023-04-18T18:02:43.307Z,100239.54
2023-04-18T18:05:43.197Z,100235.73
2023-04-18T18:08:43.244Z,100236.06
2023-04-18T18:11:43.199Z,100231.27
2023-04-18T18:14:43.271Z,100233.16
2023-04-18T18:17:43.333Z,100227.98
2023-04-18T18:20:43.299Z,100225.40
2023-04-18T18:23:43.236Z,100221.99
2023-04-18T18:26:43.308Z,100217.34
2023-04-18T18:29:43.284Z,100209.07
2023-04-18T18:32:36.335Z,100210.05
2023-04-18T18:35:16.373Z,100208.28
2023-04-18T18:38:03.309Z,100206.76
2023-04-18T18:40:43.620Z,100203.83
2023-04-18T18:43:32.329Z,100198.50
2023-04-18T18:46:18.327Z,100191.65
2023-04-18T18:49:18.491Z,100186.98
2023-04-18T18:52:18.348Z,100186.13
2023-04-18T18:55:18.382Z,100185.95
2023-04-18T18:58:18.364Z,100183.86
2023-04-18T19:01:11.378Z,100181.20
2023-04-18T19:03:58.620Z,100177.75
2023-04-18T19:06:59.333Z,100173.45
2023-04-18T19:10:01.367Z,100171.39
2023-04-18T19:13:02.085Z,100163.98
2023-04-18T19:16:02.477Z,100166.97
2023-04-18T19:19:03.396Z,100162.59
2023-04-18T19:22:03.464Z,100162.20
2023-04-18T19:25:03.698Z,100155.14
2023-04-18T19:27:56.391Z,100158.96
2023-04-18T19:30:49.355Z,100155.59
2023-04-18T19:33:36.597Z,100152.20
2023-04-18T19:36:38.420Z,100151.59
2023-04-18T19:39:40.484Z,100145.27
2023-04-18T19:42:41.401Z,100146.17
2023-04-18T19:45:41.563Z,100146.92
2023-04-18T19:48:41.442Z,100139.77
2023-04-18T19:51:41.429Z,100139.88
2023-04-18T19:54:41.524Z,100139.09
2023-04-18T19:57:44.519Z,100129.88
2023-04-18T20:00:44.974Z,100129.08
2023-04-18T20:03:45.636Z,100129.30
2023-04-18T20:06:47.461Z,100124.94
2023-04-18T20:09:48.557Z,100120.01
2023-04-18T20:12:50.201Z,100120.53
2023-04-18T20:15:51.473Z,100118.79
2023-04-18T20:18:54.985Z,100122.89
2023-04-18T20:21:56.384Z,100125.11
2023-04-18T20:25:00.776Z,100118.45
2023-04-18T20:28:13.340Z,100115.70
2023-04-18T20:31:38.668Z,100113.45
2023-04-18T20:34:38.507Z,100113.92
2023-04-18T20:37:42.620Z,100110.46
2023-04-18T20:40:42.525Z,100102.77
2023-04-18T20:43:43.674Z,100101.75
2023-04-18T20:46:44.857Z,100100.14
2023-04-18T20:49:44.519Z,100094.98
2023-04-18T20:52:44.596Z,100089.66
2023-04-18T20:55:44.508Z,100091.06
2023-04-18T20:58:44.566Z,100087.60
2023-04-18T21:01:44.677Z,100086.87
2023-04-18T21:04:44.582Z,100082.46
2023-04-18T21:07:37.749Z,100085.63
2023-04-18T21:10:38.604Z,100083.88
2023-04-18T21:13:40.735Z,100081.48
2023-04-18T21:16:40.987Z,100082.08
2023-04-18T21:19:41.645Z,100069.45
2023-04-18T21:22:42.001Z,100067.76
2023-04-18T21:25:36.549Z,100070.13
2023-04-18T21:28:23.577Z,100069.48
2023-04-18T21:31:23.587Z,100073.11
2023-04-18T21:34:24.596Z,100065.16
2023-04-18T21:37:24.611Z,100066.20
2023-04-18T21:40:24.591Z,100062.48
2023-04-18T21:43:24.774Z,100063.20
2023-04-18T21:46:24.636Z,100061.37
2023-04-18T21:49:24.963Z,100060.22
2023-04-18T21:52:24.829Z,100056.77
2023-04-18T21:55:24.632Z,100053.00
2023-04-18T21:58:25.890Z,100051.10
2023-04-18T22:01:26.682Z,100051.17
2023-04-18T22:04:29.717Z,100057.39
2023-04-18T22:07:24.041Z,100062.77
2023-04-18T22:10:24.742Z,100059.20
2023-04-18T22:13:24.691Z,100056.10
2023-04-18T22:16:24.804Z,100056.27
2023-04-18T22:19:27.739Z,100058.38
2023-04-18T22:22:27.758Z,100057.56
2023-04-18T22:25:28.054Z,100058.37
2023-04-18T22:28:29.792Z,100056.66
2023-04-18T22:31:29.788Z,100057.60
2023-04-18T22:34:29.681Z,100052.98
2023-04-18T22:37:29.703Z,100048.62
2023-04-18T22:40:29.699Z,100044.61
2023-04-18T22:43:30.718Z,100037.98
2023-04-18T22:46:30.737Z,100036.18
2023-04-18T22:49:31.032Z,100023.34
2023-04-18T22:52:30.681Z,100013.70
2023-04-18T22:55:30.731Z,100017.30
2023-04-18T22:58:33.862Z,100006.97
2023-04-18T23:01:34.065Z,100010.76
2023-04-18T23:04:38.760Z,100006.94
2023-04-18T23:07:38.735Z,100001.89
2023-04-18T23:10:38.748Z,100002.23
2023-04-18T23:13:39.773Z,99996.39
2023-04-18T23:16:43.291Z,99994.90
2023-04-18T23:19:43.830Z,99989.52
2023-04-18T23:22:44.840Z,99987.56
2023-04-18T23:25:44.828Z,99985.10
2023-04-18T23:28:44.817Z,99983.54
2023-04-18T23:31:44.809Z,99977.25
2023-04-18T23:34:44.857Z,99977.46
2023-04-18T23:37:44.805Z,99976.66
2023-04-18T23:40:44.802Z,99977.68
2023-04-18T23:43:37.813Z,99976.80
2023-04-18T23:46:23.913Z,99972.05
2023-04-18T23:49:23.757Z,99971.89
2023-04-18T23:52:25.855Z,99974.92
2023-04-18T23:55:25.897Z,99973.29
2023-04-18T23:58:25.843Z,99974.19
